Time;durP1;ratioP1;P1;durP2;ratioP2;P2;SDS_P1;SDS_P2;PMS_P1;PMS_P2;Temp;Humidity;BMP_temperature;BMP_pressure;BME280_temperature;BME280_humidity;BME280_pressure;Samples;Min_cycle;Max_cycle;Signal;HPM_P1;HPM_P2
2021/03/10 04:22:23;;;;;;;;;;;;;;;4.80;45.93;100663.50;5303692;26;19949;-85
2021/03/10 05:55:08;;;;;;;;;;;;;;;4.48;48.22;100689.69;5307715;27;19945;-87
2021/03/10 05:57:55;;;;;;;;;;;;;;;4.29;48.85;100690.06;5310320;27;20025;-85
2021/03/10 06:00:22;;;;;;;;;;;;;;;4.45;47.55;100692.19;5289455;27;20026;-85
2021/03/10 06:24:38;;;;;;;;;;;;;;;4.25;50.65;100719.47;5293343;27;19969;-84
2021/03/10 06:27:22;;;;;;;;;;;;;;;4.51;49.25;100722.69;5302234;27;19983;-85
2021/03/10 06:29:55;;;;;;;;;;;;;;;4.69;48.44;100720.53;5279919;27;20280;-87
2021/03/10 06:32:22;;;;;;;;;;;;;;;4.63;50.15;100725.59;5299111;27;19938;-84
2021/03/10 06:34:50;;;;;;;;;;;;;;;4.57;50.10;100725.44;5297669;27;19965;-86
2021/03/10 11:56:25;;;;;;;;;;;;;;;14.70;24.44;100667.22;5279493;27;19969;-87
2021/03/10 11:59:01;;;;;;;;;;;;;;;13.81;26.53;100676.59;5267120;27;19937;-86
2021/03/10 12:01:32;;;;;;;;;;;;;;;14.30;24.46;100659.12;5263602;27;19966;-86
2021/03/10 12:04:00;;;;;;;;;;;;;;;14.08;24.48;100670.03;5280838;27;19962;-86
2021/03/10 12:06:27;;;;;;;;;;;;;;;14.78;23.63;100653.87;5260437;27;19980;-86
2021/03/10 14:07:34;;;;;;;;;;;;;;;12.77;25.76;100601.44;5273096;27;19946;-89
2021/03/10 14:10:21;;;;;;;;;;;;;;;12.34;25.75;100607.16;5285383;27;20312;-89
2021/03/10 14:12:49;;;;;;;;;;;;;;;12.35;25.88;100608.88;5283564;27;20015;-89
2021/03/10 14:15:16;;;;;;;;;;;;;;;12.49;26.69;100616.66;5275777;27;19970;-89
2021/03/10 14:17:44;;;;;;;;;;;;;;;12.14;27.00;100625.75;5284149;27;19973;-87
2021/03/10 14:20:28;;;;;;;;;;;;;;;12.37;26.29;100616.78;5286964;27;19985;-88
2021/03/10 14:22:56;;;;;;;;;;;;;;;11.66;27.05;100627.00;5281492;27;19965;-90
2021/03/10 14:25:42;;;;;;;;;;;;;;;11.96;26.30;100611.00;5284592;27;19967;-88
2021/03/10 15:53:50;;;;;;;;;;;;;;;10.41;27.73;100661.66;5280345;27;19989;-86
2021/03/10 15:56:34;;;;;;;;;;;;;;;9.69;28.53;100664.19;5301690;27;19974;-87
2021/03/10 15:59:03;;;;;;;;;;;;;;;10.00;27.83;100662.50;5282100;27;19967;-85
2021/03/10 16:01:31;;;;;;;;;;;;;;;9.71;28.40;100659.81;5304502;27;20000;-87
2021/03/10 16:04:08;;;;;;;;;;;;;;;8.96;29.46;100664.78;5304397;27;20468;-89
2021/03/10 16:06:34;;;;;;;;;;;;;;;9.65;28.87;100661.56;5304977;27;19965;-88
2021/03/10 16:09:01;;;;;;;;;;;;;;;9.42;28.70;100667.59;5281480;27;20014;-85
2021/03/10 16:11:28;;;;;;;;;;;;;;;9.48;29.05;100672.00;5282371;27;19973;-86
2021/03/10 16:13:54;;;;;;;;;;;;;;;9.71;28.55;100661.56;5301580;27;19964;-85
2021/03/10 16:16:21;;;;;;;;;;;;;;;9.71;28.60;100670.31;5281685;27;20702;-85
2021/03/10 16:19:16;;;;;;;;;;;;;;;9.68;28.36;100667.69;5282686;27;19948;-86
2021/03/10 16:21:43;;;;;;;;;;;;;;;10.23;28.17;100670.38;5282333;27;19977;-87
2021/03/10 16:24:10;;;;;;;;;;;;;;;10.28;28.12;100670.38;5280679;27;19942;-86
2021/03/10 16:26:37;;;;;;;;;;;;;;;10.19;28.60;100671.22;5280892;27;19972;-86
2021/03/10 16:29:03;;;;;;;;;;;;;;;10.21;28.16;100680.00;5300099;27;19936;-85
2021/03/10 16:31:30;;;;;;;;;;;;;;;9.80;28.94;100679.97;5299943;27;20428;-85
2021/03/10 16:33:57;;;;;;;;;;;;;;;10.11;28.48;100679.97;5300265;27;19983;-86
2021/03/10 16:36:23;;;;;;;;;;;;;;;10.04;29.00;100686.97;5299171;27;20635;-85
2021/03/10 16:38:50;;;;;;;;;;;;;;;10.27;29.20;100686.16;5299322;27;20311;-86
2021/03/10 16:41:36;;;;;;;;;;;;;;;10.26;28.20;100687.84;5282726;27;19969;-86
2021/03/10 16:44:04;;;;;;;;;;;;;;;10.24;28.33;100694.87;5279553;27;19972;-87
2021/03/10 16:46:33;;;;;;;;;;;;;;;10.13;28.51;100697.50;5279136;27;20024;-86
2021/03/10 16:49:06;;;;;;;;;;;;;;;10.36;28.28;100694.91;5279226;27;20380;-88
2021/03/10 16:51:32;;;;;;;;;;;;;;;10.22;29.02;100699.25;5278734;27;19973;-86
2021/03/10 16:53:58;;;;;;;;;;;;;;;10.19;30.03;100702.75;5298284;27;19996;-85
2021/03/10 16:56:27;;;;;;;;;;;;;;;10.04;29.37;100710.59;5279253;27;20383;-86
2021/03/10 16:58:54;;;;;;;;;;;;;;;10.09;29.76;100710.59;5298411;27;19972;-86
2021/03/10 17:01:20;;;;;;;;;;;;;;;10.18;29.10;100711.50;5279231;27;20272;-85
2021/03/10 17:03:47;;;;;;;;;;;;;;;9.89;29.58;100716.72;5298488;27;20036;-86
2021/03/10 17:06:14;;;;;;;;;;;;;;;10.20;28.50;100714.13;5278863;27;20312;-86
2021/03/10 17:08:40;;;;;;;;;;;;;;;10.15;28.46;100722.00;5298521;27;19977;-86
2021/03/10 17:11:06;;;;;;;;;;;;;;;9.95;28.63;100724.59;5278708;27;19980;-86
2021/03/10 17:13:34;;;;;;;;;;;;;;;9.94;29.71;100724.56;5279950;27;19976;-86
2021/03/10 17:16:00;;;;;;;;;;;;;;;9.80;29.92;100724.56;5299689;27;20334;-86
2021/03/10 17:18:27;;;;;;;;;;;;;;;9.52;29.69;100728.84;5280284;27;20346;-85
2021/03/10 17:20:54;;;;;;;;;;;;;;;9.38;29.68;100727.91;5279847;27;20330;-86
2021/03/10 17:23:21;;;;;;;;;;;;;;;9.65;29.94;100735.03;5280933;27;20298;-87
2021/03/10 17:25:48;;;;;;;;;;;;;;;9.42;30.70;100737.56;5299862;27;19967;-86
2021/03/10 18:01:24;;;;;;;;;;;;;;;8.72;31.26;100777.31;5259175;27;19942;-87
2021/03/10 18:03:50;;;;;;;;;;;;;;;8.56;31.54;100781.53;5259118;27;19957;-86
2021/03/10 18:06:17;;;;;;;;;;;;;;;8.53;31.63;100777.16;5259351;27;20346;-85
2021/03/10 18:08:43;;;;;;;;;;;;;;;8.42;31.96;100773.56;5260614;27;19974;-85
2021/03/10 18:11:10;;;;;;;;;;;;;;;8.28;32.22;100788.25;5259402;27;19968;-85
2021/03/10 18:13:37;;;;;;;;;;;;;;;8.47;31.85;100790.22;5257986;27;19948;-86
2021/03/10 18:16:06;;;;;;;;;;;;;;;8.13;32.59;100794.19;5257658;27;20010;-86
2021/03/10 18:18:34;;;;;;;;;;;;;;;7.95;32.96;100800.13;5240038;27;19984;-85
2021/03/10 18:21:01;;;;;;;;;;;;;;;8.09;32.88;100803.75;5257299;27;19978;-86
2021/03/10 18:23:28;;;;;;;;;;;;;;;8.25;32.52;100803.91;5257565;27;19957;-86
2021/03/10 18:25:55;;;;;;;;;;;;;;;8.26;32.63;100806.53;5259242;27;20006;-86
2021/03/10 18:28:22;;;;;;;;;;;;;;;7.87;33.38;100807.00;5258863;27;20028;-85
2021/03/10 18:31:03;;;;;;;;;;;;;;;7.05;35.07;100812.84;5262466;27;19969;-86
2021/03/10 18:33:30;;;;;;;;;;;;;;;7.38;34.49;100822.03;5262538;27;19973;-85
2021/03/10 18:35:57;;;;;;;;;;;;;;;7.45;34.42;100822.16;5262364;27;19973;-85
2021/03/10 18:38:24;;;;;;;;;;;;;;;7.53;34.39;100829.22;5242256;27;19968;-86
2021/03/10 18:40:51;;;;;;;;;;;;;;;7.68;34.11;100832.06;5242791;27;19964;-86
2021/03/10 18:43:18;;;;;;;;;;;;;;;7.68;34.02;100824.22;5244350;27;20073;-87
2021/03/10 18:45:45;;;;;;;;;;;;;;;7.33;34.74;100819.38;5262340;27;19991;-80
2021/03/10 18:48:14;;;;;;;;;;;;;;;7.66;34.25;100828.53;5260189;27;19977;-86
2021/03/10 18:50:47;;;;;;;;;;;;;;;7.47;34.67;100827.37;5261810;27;20032;-87
2021/03/10 18:53:17;;;;;;;;;;;;;;;7.01;35.86;100830.22;5263681;27;19967;-85
2021/03/10 18:55:47;;;;;;;;;;;;;;;6.92;36.10;100832.69;5266335;27;19965;-86
2021/03/10 18:58:19;;;;;;;;;;;;;;;7.11;35.67;100839.06;5266969;27;19986;-86
2021/03/10 19:00:48;;;;;;;;;;;;;;;7.22;35.55;100837.50;5261346;27;19997;-87
2021/03/10 19:03:18;;;;;;;;;;;;;;;6.99;35.97;100837.16;5225538;27;19982;-86
2021/03/10 19:05:48;;;;;;;;;;;;;;;7.17;35.44;100843.53;5261667;27;19943;-86
2021/03/10 19:08:30;;;;;;;;;;;;;;;7.25;35.89;100840.16;5244302;27;19981;-87
2021/03/10 19:11:06;;;;;;;;;;;;;;;7.38;35.97;100840.34;5257472;27;19941;-87
2021/03/10 19:13:34;;;;;;;;;;;;;;;7.30;36.35;100847.22;5239287;27;19977;-87
2021/03/10 19:16:02;;;;;;;;;;;;;;;7.19;36.97;100849.66;5256048;27;20635;-86
2021/03/10 19:18:29;;;;;;;;;;;;;;;7.16;37.25;100857.47;5256436;27;19984;-88
2021/03/10 19:20:59;;;;;;;;;;;;;;;7.13;36.84;100849.56;5237942;27;19934;-86
2021/03/10 19:23:27;;;;;;;;;;;;;;;7.19;37.23;100860.13;5255514;27;20277;-86
2021/03/10 19:25:54;;;;;;;;;;;;;;;7.17;37.54;100859.19;5255644;27;19985;-87
2021/03/10 19:28:22;;;;;;;;;;;;;;;7.12;37.79;100860.84;5239577;27;19966;-86
2021/03/10 19:30:49;;;;;;;;;;;;;;;6.99;38.45;100854.56;5255001;27;19996;-86
2021/03/10 19:33:16;;;;;;;;;;;;;;;6.89;38.15;100864.00;5239139;27;19973;-86
2021/03/10 19:35:43;;;;;;;;;;;;;;;6.90;37.97;100863.13;5255562;27;19966;-87
2021/03/10 19:38:10;;;;;;;;;;;;;;;6.59;38.57;100856.53;5256747;27;19974;-86
2021/03/10 19:40:39;;;;;;;;;;;;;;;6.77;38.41;100867.28;5256249;27;19966;-87
2021/03/10 19:43:07;;;;;;;;;;;;;;;6.67;39.18;100869.69;5250567;27;20082;-87
2021/03/10 19:45:34;;;;;;;;;;;;;;;6.55;39.25;100860.78;5258768;27;19954;-86
2021/03/10 19:48:17;;;;;;;;;;;;;;;6.41;39.16;100870.09;5241404;27;19984;-86
2021/03/10 19:50:52;;;;;;;;;;;;;;;6.36;39.41;100869.16;5241916;27;19972;-86
2021/03/10 19:53:20;;;;;;;;;;;;;;;6.32;38.73;100872.53;5258656;27;19944;-86
2021/03/10 19:55:54;;;;;;;;;;;;;;;5.78;39.31;100886.19;5258183;27;20438;-87
2021/03/10 19:58:24;;;;;;;;;;;;;;;5.95;38.76;100874.44;5258830;27;19989;-86
2021/03/10 20:00:52;;;;;;;;;;;;;;;5.56;39.31;100877.00;5258166;27;20009;-86
2021/03/10 20:03:20;;;;;;;;;;;;;;;5.59;39.55;100885.81;5241210;27;19974;-84
2021/03/10 20:05:47;;;;;;;;;;;;;;;5.76;39.30;100888.75;5241388;27;19966;-86
2021/03/10 20:08:15;;;;;;;;;;;;;;;5.52;39.76;100881.28;5257752;27;20014;-86
2021/03/10 20:10:43;;;;;;;;;;;;;;;5.72;38.79;100880.84;5258701;27;19966;-86
2021/03/10 20:13:13;;;;;;;;;;;;;;;5.69;38.85;100886.88;5257688;27;19972;-86
2021/03/10 20:15:40;;;;;;;;;;;;;;;5.60;38.54;100884.06;5257460;27;19966;-86
2021/03/10 20:18:07;;;;;;;;;;;;;;;5.58;38.58;100889.25;5238485;27;20009;-86
2021/03/10 20:20:39;;;;;;;;;;;;;;;5.53;38.41;100889.97;5256910;27;19966;-85
2021/03/10 20:23:10;;;;;;;;;;;;;;;5.45;38.96;100895.91;5256634;27;19973;-86
2021/03/10 20:25:40;;;;;;;;;;;;;;;5.41;39.10;100893.19;5240048;27;20026;-86
2021/03/10 20:28:07;;;;;;;;;;;;;;;5.35;39.28;100896.53;5240495;27;20045;-86
2021/03/10 20:30:35;;;;;;;;;;;;;;;5.36;39.48;100897.44;5258010;27;19974;-85
2021/03/10 20:33:02;;;;;;;;;;;;;;;5.32;39.43;100898.19;5258618;27;19954;-85
2021/03/10 20:35:29;;;;;;;;;;;;;;;5.06;39.99;100907.97;5258288;27;19966;-85
2021/03/10 20:37:57;;;;;;;;;;;;;;;5.18;39.62;100913.50;5259267;27;19957;-86
2021/03/10 20:40:25;;;;;;;;;;;;;;;5.13;39.39;100920.31;5242068;27;20003;-85
2021/03/10 20:42:52;;;;;;;;;;;;;;;5.11;39.41;100907.25;5241966;27;19942;-86
2021/03/10 20:45:25;;;;;;;;;;;;;;;4.81;40.83;100914.31;5241521;27;20013;-87
2021/03/10 20:47:52;;;;;;;;;;;;;;;4.94;40.86;100912.06;5259029;27;20028;-86
2021/03/10 20:50:20;;;;;;;;;;;;;;;4.77;41.06;100909.03;5257949;27;20621;-87
2021/03/10 20:52:47;;;;;;;;;;;;;;;4.71;40.57;100915.81;5239970;27;19966;-85
2021/03/10 20:55:29;;;;;;;;;;;;;;;4.84;39.91;100920.47;5196732;27;19947;-86
2021/03/10 20:57:59;;;;;;;;;;;;;;;4.65;39.79;100916.50;5197737;27;20575;-87
2021/03/10 21:00:27;;;;;;;;;;;;;;;4.76;40.00;100920.28;5196412;27;19980;-87
2021/03/10 21:03:10;;;;;;;;;;;;;;;4.73;40.29;100924.50;5198884;27;20328;-87
2021/03/10 21:05:37;;;;;;;;;;;;;;;4.49;40.76;100928.22;5199956;27;19954;-87
2021/03/10 21:08:11;;;;;;;;;;;;;;;4.61;41.00;100922.47;5198910;27;19953;-86
2021/03/10 21:10:40;;;;;;;;;;;;;;;4.06;42.14;100919.22;5201216;27;19955;-87
2021/03/10 21:13:07;;;;;;;;;;;;;;;4.36;41.15;100922.66;5210939;27;19969;-88
2021/03/10 21:15:33;;;;;;;;;;;;;;;3.58;44.14;100911.72;5242274;27;19963;-87
2021/03/10 21:18:00;;;;;;;;;;;;;;;3.58;47.33;100919.50;5243623;27;19950;-86
2021/03/10 21:20:26;;;;;;;;;;;;;;;3.64;47.82;100913.62;5243830;27;20806;-86
2021/03/10 21:22:55;;;;;;;;;;;;;;;3.84;45.40;100915.09;5245293;27;19962;-86
2021/03/10 21:25:22;;;;;;;;;;;;;;;4.00;45.01;100919.06;5243186;27;19938;-86
2021/03/10 21:27:48;;;;;;;;;;;;;;;3.99;44.97;100914.66;5243433;27;19970;-86
2021/03/10 21:30:15;;;;;;;;;;;;;;;3.51;46.57;100916.69;5244203;27;20747;-86
2021/03/10 21:32:43;;;;;;;;;;;;;;;3.90;46.21;100922.19;5243855;27;19957;-86
2021/03/10 21:35:11;;;;;;;;;;;;;;;3.68;47.18;100919.78;5241282;27;19945;-87
2021/03/10 21:37:38;;;;;;;;;;;;;;;3.66;49.20;100922.34;5241467;27;19980;-87
2021/03/10 21:40:05;;;;;;;;;;;;;;;3.08;50.51;100923.97;5243720;27;19973;-86
2021/03/10 21:42:39;;;;;;;;;;;;;;;3.15;48.93;100927.69;5241180;27;19949;-85
2021/03/10 21:45:06;;;;;;;;;;;;;;;2.86;48.44;100924.13;5242222;27;20123;-86
2021/03/10 21:47:34;;;;;;;;;;;;;;;3.30;47.63;100914.31;5242536;27;19970;-86
2021/03/10 21:50:01;;;;;;;;;;;;;;;3.36;47.15;100917.97;5241026;27;19980;-87
2021/03/10 21:52:27;;;;;;;;;;;;;;;3.19;47.63;100919.16;5239992;27;19969;-86
2021/03/10 21:54:53;;;;;;;;;;;;;;;2.79;48.80;100914.34;5241619;27;20026;-86
2021/03/10 21:57:20;;;;;;;;;;;;;;;2.95;48.35;100908.84;5239344;27;20024;-86
2021/03/10 21:59:46;;;;;;;;;;;;;;;2.69;47.27;100919.22;5237970;27;19966;-86
2021/03/10 22:02:12;;;;;;;;;;;;;;;2.88;46.07;100918.16;5257719;27;20041;-87
2021/03/10 22:04:41;;;;;;;;;;;;;;;3.08;44.92;100915.31;5262229;27;19982;-87
2021/03/10 22:07:08;;;;;;;;;;;;;;;3.16;44.79;100914.72;5262220;27;20040;-86
2021/03/10 22:09:34;;;;;;;;;;;;;;;3.22;44.35;100913.16;5261839;27;19944;-86
2021/03/10 22:12:01;;;;;;;;;;;;;;;3.17;44.03;100905.22;5264784;27;19964;-86
2021/03/10 22:14:27;;;;;;;;;;;;;;;3.06;43.34;100917.88;5265672;27;19946;-85
2021/03/10 22:16:54;;;;;;;;;;;;;;;3.19;42.67;100909.62;5265666;27;20451;-86
2021/03/10 22:19:21;;;;;;;;;;;;;;;3.21;42.81;100922.69;5259772;27;19969;-86
2021/03/10 22:22:01;;;;;;;;;;;;;;;3.01;42.60;100915.97;5261777;27;19957;-86
2021/03/10 22:24:30;;;;;;;;;;;;;;;3.09;42.28;100927.44;5260193;27;21240;-86
2021/03/10 22:26:57;;;;;;;;;;;;;;;3.13;43.05;100929.34;5257803;27;19985;-86
2021/03/10 22:29:23;;;;;;;;;;;;;;;2.68;45.51;100933.03;5257006;27;19961;-86
2021/03/10 22:31:49;;;;;;;;;;;;;;;2.39;46.86;100934.59;5260251;27;19944;-85
2021/03/10 22:34:16;;;;;;;;;;;;;;;1.95;49.11;100939.03;5260630;27;19973;-85
2021/03/10 22:36:42;;;;;;;;;;;;;;;2.46;46.95;100933.97;5260847;27;19980;-86
2021/03/10 22:39:08;;;;;;;;;;;;;;;2.50;45.96;100933.28;5263348;27;19986;-86
2021/03/10 22:41:39;;;;;;;;;;;;;;;2.76;45.93;100935.00;5262676;27;19961;-86
2021/03/10 22:44:06;;;;;;;;;;;;;;;2.83;45.75;100937.00;5262349;27;19966;-86
2021/03/10 22:46:32;;;;;;;;;;;;;;;2.75;45.35;100931.53;5262394;27;19953;-86
2021/03/10 22:49:02;;;;;;;;;;;;;;;2.73;44.82;100946.16;5263084;27;19981;-86
2021/03/10 22:51:33;;;;;;;;;;;;;;;2.85;44.94;100936.19;5263033;27;19974;-87
2021/03/10 22:54:00;;;;;;;;;;;;;;;2.84;45.31;100930.97;5264931;27;20037;-86
2021/03/10 22:56:26;;;;;;;;;;;;;;;1.12;50.21;100938.37;5263503;27;19984;-86
2021/03/10 22:58:52;;;;;;;;;;;;;;;2.45;46.87;100927.03;5264261;27;19969;-85
2021/03/10 23:01:22;;;;;;;;;;;;;;;2.24;47.98;100927.16;5263877;27;19944;-86
2021/03/10 23:03:49;;;;;;;;;;;;;;;2.45;46.45;100932.22;5263454;27;20010;-86
2021/03/10 23:06:18;;;;;;;;;;;;;;;2.30;45.28;100930.81;5263780;27;20016;-85
2021/03/10 23:08:45;;;;;;;;;;;;;;;2.48;46.27;100934.94;5264121;27;20699;-86
2021/03/10 23:11:15;;;;;;;;;;;;;;;2.67;45.86;100930.38;5263968;27;19982;-86
2021/03/10 23:13:42;;;;;;;;;;;;;;;2.53;45.71;100926.41;5263235;27;19976;-85
2021/03/10 23:16:08;;;;;;;;;;;;;;;2.31;45.75;100942.94;5264260;27;20004;-86
2021/03/10 23:18:35;;;;;;;;;;;;;;;2.28;44.75;100941.09;5263838;27;21006;-85
2021/03/10 23:21:03;;;;;;;;;;;;;;;2.09;44.87;100941.25;5262715;27;19958;-85
2021/03/10 23:23:31;;;;;;;;;;;;;;;2.32;45.61;100934.31;5264437;27;20021;-86
2021/03/10 23:28:47;;;;;;;;;;;;;;;2.51;45.52;100934.16;5264509;27;19997;-85
2021/03/10 23:31:14;;;;;;;;;;;;;;;1.95;48.70;100936.44;5262230;27;20535;-86
2021/03/10 23:33:45;;;;;;;;;;;;;;;2.23;48.53;100929.69;5263754;27;19977;-85
2021/03/10 23:36:14;;;;;;;;;;;;;;;2.24;48.72;100929.75;5265051;27;19984;-85
2021/03/10 23:38:46;;;;;;;;;;;;;;;2.35;49.71;100924.94;5264642;27;20025;-84
2021/03/10 23:41:13;;;;;;;;;;;;;;;2.01;51.78;100936.66;5262328;27;19953;-86
2021/03/10 23:43:39;;;;;;;;;;;;;;;2.27;50.49;100934.16;5264007;27;19970;-86
2021/03/10 23:46:06;;;;;;;;;;;;;;;2.24;48.82;100932.34;5264318;27;19981;-86
2021/03/10 23:48:33;;;;;;;;;;;;;;;2.20;48.32;100939.94;5265684;27;19965;-85
2021/03/10 23:51:01;;;;;;;;;;;;;;;2.13;47.16;100948.31;5265742;27;19957;-86
2021/03/10 23:53:28;;;;;;;;;;;;;;;2.16;47.28;100933.75;5265218;27;20651;-86
2021/03/10 23:55:55;;;;;;;;;;;;;;;2.33;46.96;100929.19;5265972;27;19938;-85
2021/03/10 23:58:22;;;;;;;;;;;;;;;2.30;46.31;100930.81;5265611;27;20441;-86
